createdAt,value
2018-12-13T00:00:35.187Z,85.40
2018-12-13T00:03:01.220Z,85.30
2018-12-13T00:05:27.239Z,85.40
2018-12-13T00:07:53.275Z,85.40
2018-12-13T00:10:19.319Z,85.40
2018-12-13T00:12:45.351Z,85.30
2018-12-13T00:15:11.476Z,85.30
2018-12-13T00:17:37.475Z,85.20
2018-12-13T00:20:04.008Z,85.20
2018-12-13T00:22:30.019Z,85.10
2018-12-13T00:24:56.060Z,85.30
2018-12-13T00:27:22.079Z,85.10
2018-12-13T00:29:48.091Z,85.20
2018-12-13T00:32:14.118Z,85.20
2018-12-13T00:34:40.140Z,85.00
2018-12-13T00:37:06.267Z,85.00
2018-12-13T00:39:32.291Z,84.90
2018-12-13T00:41:58.306Z,84.90
2018-12-13T00:44:24.311Z,84.90
2018-12-13T00:46:50.339Z,84.90
2018-12-13T00:49:16.369Z,85.00
2018-12-13T00:51:42.379Z,85.00
2018-12-13T00:54:08.501Z,85.00
2018-12-13T00:56:34.535Z,85.20
2018-12-13T00:59:00.539Z,85.40
2018-12-13T01:01:26.563Z,85.30
2018-12-13T01:03:52.618Z,85.90
2018-12-13T01:06:18.620Z,85.30
2018-12-13T01:08:44.658Z,84.70
2018-12-13T01:11:10.878Z,84.50
2018-12-13T01:13:36.947Z,84.50
2018-12-13T01:16:03.121Z,84.30
2018-12-13T01:18:29.138Z,84.30
2018-12-13T01:20:55.162Z,84.40
2018-12-13T01:23:21.171Z,84.30
2018-12-13T01:25:47.191Z,84.30
2018-12-13T01:28:20.275Z,84.30
2018-12-13T01:30:46.287Z,84.30
2018-12-13T01:33:12.300Z,84.30
2018-12-13T01:35:38.328Z,84.10
2018-12-13T01:38:04.372Z,84.00
2018-12-13T01:40:30.394Z,84.30
2018-12-13T01:42:56.502Z,84.30
2018-12-13T01:45:22.523Z,84.30
2018-12-13T01:47:48.535Z,84.20
2018-12-13T01:50:14.575Z,84.00
2018-12-13T01:52:40.707Z,84.20
2018-12-13T01:55:08.335Z,84.30
2018-12-13T01:57:34.342Z,83.90
2018-12-13T02:00:08.173Z,83.70
2018-12-13T02:02:34.204Z,83.40
2018-12-13T02:05:00.219Z,82.90
2018-12-13T02:07:26.227Z,82.50
2018-12-13T02:09:52.239Z,82.20
2018-12-13T02:12:18.284Z,81.90
2018-12-13T02:14:44.284Z,81.90
2018-12-13T02:17:10.302Z,82.20
2018-12-13T02:19:36.345Z,81.80
2018-12-13T02:22:02.475Z,82.00
2018-12-13T02:24:28.498Z,81.90
2018-12-13T02:26:54.619Z,81.70
2018-12-13T02:29:20.627Z,81.60
2018-12-13T02:31:46.692Z,81.50
2018-12-13T02:34:12.692Z,81.40
2018-12-13T02:36:38.699Z,81.40
2018-12-13T02:39:05.128Z,81.20
2018-12-13T02:41:31.151Z,81.30
2018-12-13T02:43:57.168Z,81.10
2018-12-13T02:46:30.240Z,81.20
2018-12-13T02:49:06.914Z,81.10
2018-12-13T02:51:33.352Z,81.20
2018-12-13T02:53:59.365Z,81.20
2018-12-13T02:56:25.500Z,81.90
2018-12-13T02:58:51.723Z,81.00
2018-12-13T03:01:17.765Z,81.10
2018-12-13T03:03:43.787Z,81.20
2018-12-13T03:06:09.807Z,81.10
2018-12-13T03:08:35.835Z,81.10
2018-12-13T03:11:01.855Z,80.90
2018-12-13T03:13:28.192Z,80.80
2018-12-13T03:15:54.204Z,80.80
2018-12-13T03:18:20.216Z,80.60
2018-12-13T03:20:46.255Z,80.80
2018-12-13T03:23:12.275Z,80.80
2018-12-13T03:25:38.296Z,80.80
2018-12-13T03:28:04.428Z,80.90
2018-12-13T03:30:30.447Z,81.10
2018-12-13T03:32:56.613Z,81.10
2018-12-13T03:35:22.620Z,80.90
2018-12-13T03:37:48.651Z,81.00
2018-12-13T03:40:14.674Z,81.10
2018-12-13T03:42:40.954Z,81.20
2018-12-13T03:45:07.310Z,81.60
2018-12-13T03:47:33.320Z,81.60
2018-12-13T03:49:59.349Z,81.70
2018-12-13T03:52:25.363Z,81.80
2018-12-13T03:54:51.374Z,82.10
2018-12-13T03:57:17.391Z,82.20
2018-12-13T03:59:43.394Z,82.40
2018-12-13T04:02:09.415Z,82.70
2018-12-13T04:04:35.435Z,82.30
2018-12-13T04:07:01.453Z,82.10
2018-12-13T04:09:27.494Z,82.20
2018-12-13T04:11:53.599Z,82.00
2018-12-13T04:14:19.723Z,82.30
2018-12-13T04:16:45.856Z,82.40
2018-12-13T04:19:11.923Z,82.60
2018-12-13T04:21:37.977Z,82.50
2018-12-13T04:24:03.988Z,82.40
2018-12-13T04:26:30.010Z,82.20
2018-12-13T04:28:56.031Z,82.10
2018-12-13T04:31:22.045Z,82.10
2018-12-13T04:33:48.085Z,82.20
2018-12-13T04:36:14.095Z,82.00
2018-12-13T04:38:40.121Z,81.90
2018-12-13T04:41:06.143Z,81.90
2018-12-13T04:43:32.161Z,81.90
2018-12-13T04:45:58.257Z,81.90
2018-12-13T04:48:24.289Z,81.90
2018-12-13T04:50:50.310Z,82.40
2018-12-13T04:53:16.326Z,81.80
2018-12-13T04:55:42.346Z,81.70
2018-12-13T04:58:08.363Z,81.60
2018-12-13T05:00:34.498Z,81.60
2018-12-13T05:03:00.522Z,81.70
2018-12-13T05:05:26.536Z,81.90
2018-12-13T05:07:52.709Z,81.90
2018-12-13T05:10:31.120Z,81.90
2018-12-13T05:12:57.154Z,82.00
2018-12-13T05:15:23.174Z,81.80
2018-12-13T05:17:49.203Z,81.90
2018-12-13T05:20:15.218Z,82.00
2018-12-13T05:22:41.241Z,82.00
2018-12-13T05:25:07.359Z,82.00
2018-12-13T05:27:33.358Z,82.00
2018-12-13T05:29:59.383Z,82.10
2018-12-13T05:32:25.413Z,82.10
2018-12-13T05:34:51.559Z,82.80
2018-12-13T05:37:17.622Z,82.00
2018-12-13T05:39:43.633Z,82.00
2018-12-13T05:42:09.634Z,82.00
2018-12-13T05:44:35.660Z,82.10
2018-12-13T05:47:01.670Z,82.00
2018-12-13T05:49:27.679Z,82.10
2018-12-13T05:51:53.707Z,81.90
2018-12-13T05:54:19.717Z,82.00
2018-12-13T05:56:45.741Z,81.90
2018-12-13T05:59:11.863Z,81.90
2018-12-13T06:01:38.170Z,81.90
2018-12-13T06:04:04.247Z,81.90
2018-12-13T06:06:30.268Z,81.90
2018-12-13T06:08:56.275Z,81.90
2018-12-13T06:11:22.278Z,81.80
2018-12-13T06:13:48.289Z,81.80
2018-12-13T06:16:14.307Z,81.90
2018-12-13T06:18:40.342Z,81.80
2018-12-13T06:21:11.737Z,81.60
2018-12-13T06:23:34.408Z,81.50
2018-12-13T06:26:00.480Z,81.50
2018-12-13T06:28:26.486Z,81.60
2018-12-13T06:30:52.591Z,81.70
2018-12-13T06:33:24.671Z,82.60
2018-12-13T06:35:46.655Z,81.80
2018-12-13T06:38:12.900Z,81.80
2018-12-13T06:40:38.947Z,82.50
2018-12-13T06:43:05.183Z,81.70
2018-12-13T06:45:31.203Z,81.60
2018-12-13T06:47:57.203Z,81.50
2018-12-13T06:50:23.225Z,81.50
2018-12-13T06:52:49.348Z,81.70
2018-12-13T06:55:15.372Z,81.70
2018-12-13T06:57:41.391Z,81.50
2018-12-13T07:00:07.721Z,81.80
2018-12-13T07:02:33.962Z,81.90
2018-12-13T07:04:59.979Z,82.00
2018-12-13T07:07:26.087Z,81.90
2018-12-13T07:09:52.095Z,81.70
2018-12-13T07:12:18.116Z,81.80
2018-12-13T07:14:44.129Z,81.70
2018-12-13T07:17:10.144Z,81.60
2018-12-13T07:19:36.291Z,81.60
2018-12-13T07:22:02.454Z,81.60
2018-12-13T07:24:28.468Z,81.60
2018-12-13T07:26:54.490Z,81.60
2018-12-13T07:29:20.503Z,81.60
2018-12-13T07:31:46.639Z,81.40
2018-12-13T07:34:12.638Z,81.60
2018-12-13T07:36:38.871Z,81.70
2018-12-13T07:39:06.217Z,81.80
2018-12-13T07:41:32.267Z,82.00
2018-12-13T07:43:58.364Z,82.00
2018-12-13T07:46:24.395Z,82.10
2018-12-13T07:48:56.261Z,82.20
2018-12-13T07:51:18.435Z,82.10
2018-12-13T07:53:44.444Z,82.10
2018-12-13T07:56:10.583Z,82.10
2018-12-13T07:58:36.587Z,82.10
2018-12-13T08:01:02.816Z,82.30
2018-12-13T08:03:28.859Z,82.40
2018-12-13T08:05:54.875Z,82.40
2018-12-13T08:08:21.240Z,82.60
2018-12-13T08:10:47.494Z,83.30
2018-12-13T08:13:13.552Z,82.40
2018-12-13T08:15:39.590Z,82.70
2018-12-13T08:18:05.727Z,82.90
2018-12-13T08:20:31.755Z,82.90
2018-12-13T08:22:57.780Z,82.90
2018-12-13T08:25:23.793Z,82.90
2018-12-13T08:27:49.867Z,82.80
2018-12-13T08:30:16.030Z,82.90
2018-12-13T08:32:42.133Z,83.10
2018-12-13T08:35:08.161Z,83.10
2018-12-13T08:37:34.303Z,83.00
2018-12-13T08:40:00.316Z,83.20
2018-12-13T08:42:26.611Z,83.20
2018-12-13T08:44:52.658Z,83.10
2018-12-13T08:47:18.701Z,83.10
2018-12-13T08:49:44.715Z,83.30
2018-12-13T08:52:10.739Z,83.50
2018-12-13T08:54:36.787Z,83.50
2018-12-13T08:57:03.110Z,83.60
2018-12-13T08:59:29.119Z,83.60
2018-12-13T09:01:55.151Z,83.80
2018-12-13T09:04:21.235Z,83.80
2018-12-13T09:06:47.383Z,83.80
2018-12-13T09:09:13.515Z,83.80
2018-12-13T09:11:46.738Z,83.30
2018-12-13T09:14:12.751Z,84.10
2018-12-13T09:16:38.783Z,84.00
2018-12-13T09:19:04.811Z,84.10
2018-12-13T09:21:30.824Z,84.10
2018-12-13T09:23:56.858Z,84.20
2018-12-13T09:26:29.800Z,84.20
2018-12-13T09:28:55.816Z,84.10
2018-12-13T09:31:21.831Z,84.50
2018-12-13T09:33:47.884Z,84.30
2018-12-13T09:36:13.897Z,84.10
2018-12-13T09:38:40.106Z,84.40
2018-12-13T09:41:06.276Z,84.40
2018-12-13T09:43:32.889Z,84.30
2018-12-13T09:45:58.943Z,84.40
2018-12-13T09:48:25.071Z,84.30
2018-12-13T09:50:51.081Z,84.20
2018-12-13T09:53:17.093Z,84.40
2018-12-13T09:55:43.115Z,84.20
2018-12-13T09:58:16.151Z,84.10
2018-12-13T10:00:42.155Z,84.10
2018-12-13T10:03:08.163Z,84.20
2018-12-13T10:05:34.194Z,83.90
2018-12-13T10:08:00.202Z,83.80
2018-12-13T10:10:26.447Z,83.60
2018-12-13T10:12:52.479Z,84.10
2018-12-13T10:15:18.488Z,84.10
2018-12-13T10:17:44.528Z,83.50
2018-12-13T10:20:10.594Z,83.60
2018-12-13T10:22:36.723Z,83.20
2018-12-13T10:25:03.883Z,83.60
2018-12-13T10:27:29.909Z,83.70
2018-12-13T10:29:55.930Z,83.20
2018-12-13T10:32:21.961Z,83.40
2018-12-13T10:34:54.976Z,83.00
2018-12-13T10:37:21.000Z,83.20
2018-12-13T10:39:47.077Z,82.70
2018-12-13T10:42:13.205Z,82.30
2018-12-13T10:44:41.242Z,82.30
2018-12-13T10:47:07.481Z,82.80
2018-12-13T10:49:33.502Z,82.50
2018-12-13T10:51:59.529Z,82.80
2018-12-13T10:54:25.676Z,82.70
2018-12-13T10:56:51.687Z,82.60
2018-12-13T10:59:17.703Z,82.80
2018-12-13T11:01:45.739Z,82.50
2018-12-13T11:04:11.755Z,83.60
2018-12-13T11:06:37.787Z,82.30
2018-12-13T11:09:04.741Z,81.40
2018-12-13T11:11:30.873Z,81.40
2018-12-13T11:13:56.999Z,82.00
2018-12-13T11:16:23.019Z,81.70
2018-12-13T11:18:49.053Z,81.80
2018-12-13T11:21:17.466Z,81.20
2018-12-13T11:23:43.225Z,81.50
2018-12-13T11:26:09.475Z,81.10
2018-12-13T11:29:02.045Z,81.40
2018-12-13T11:31:28.175Z,80.90
2018-12-13T11:33:54.178Z,81.20
2018-12-13T11:36:20.207Z,81.70
2018-12-13T11:38:46.227Z,81.30
2018-12-13T11:41:12.267Z,81.50
2018-12-13T11:43:38.287Z,80.20
2018-12-13T11:46:04.311Z,81.00
2018-12-13T11:48:30.325Z,81.00
2018-12-13T11:50:56.357Z,81.30
2018-12-13T11:53:22.475Z,80.00
2018-12-13T11:55:48.707Z,80.60
2018-12-13T11:58:14.838Z,80.70
2018-12-13T12:00:41.082Z,80.80
2018-12-13T12:03:07.198Z,80.80
2018-12-13T12:05:33.337Z,80.40
2018-12-13T12:07:59.354Z,80.90
2018-12-13T12:10:25.383Z,80.00
2018-12-13T12:12:51.403Z,79.90
2018-12-13T12:15:17.627Z,79.10
2018-12-13T12:17:43.646Z,78.70
2018-12-13T12:20:09.663Z,78.90
2018-12-13T12:22:35.687Z,78.90
2018-12-13T12:25:02.450Z,79.50
2018-12-13T12:27:28.544Z,79.70
2018-12-13T12:29:54.575Z,79.40
2018-12-13T12:32:20.599Z,78.90
2018-12-13T12:34:46.715Z,79.50
2018-12-13T12:37:12.762Z,79.70
2018-12-13T12:39:38.782Z,79.10
2018-12-13T12:42:04.807Z,78.00
2018-12-13T12:44:32.842Z,78.30
2018-12-13T12:46:58.981Z,77.60
2018-12-13T12:49:25.381Z,78.00
2018-12-13T12:51:51.645Z,77.70
2018-12-13T12:54:17.667Z,78.80
2018-12-13T12:56:50.611Z,79.20
2018-12-13T12:59:16.631Z,77.90
2018-12-13T13:01:42.671Z,78.70
2018-12-13T13:04:08.697Z,78.90
2018-12-13T13:06:34.832Z,78.40
2018-12-13T13:09:00.947Z,77.90
2018-12-13T13:11:27.078Z,78.50
2018-12-13T13:13:53.095Z,77.40
2018-12-13T13:16:19.142Z,76.80
2018-12-13T13:18:45.167Z,77.90
2018-12-13T13:21:11.471Z,77.50
2018-12-13T13:23:37.543Z,76.80
2018-12-13T13:26:03.675Z,77.00
2018-12-13T13:28:29.706Z,76.90
2018-12-13T13:30:55.833Z,77.00
2018-12-13T13:33:21.863Z,77.00
2018-12-13T13:35:47.875Z,77.00
2018-12-13T13:38:13.895Z,76.80
2018-12-13T13:40:40.016Z,77.00
2018-12-13T13:43:06.045Z,76.60
2018-12-13T13:45:32.070Z,77.10
2018-12-13T13:47:58.109Z,76.10
2018-12-13T13:50:24.142Z,76.50
2018-12-13T13:52:50.184Z,76.90
2018-12-13T13:55:16.310Z,76.30
2018-12-13T13:57:42.345Z,76.40
2018-12-13T14:00:09.457Z,77.00
2018-12-13T14:02:35.625Z,76.60
2018-12-13T14:05:01.759Z,76.90
2018-12-13T14:07:29.763Z,77.00
2018-12-13T14:09:59.446Z,76.30
2018-12-13T14:12:25.472Z,76.10
2018-12-13T14:14:51.536Z,75.90
2018-12-13T14:17:17.662Z,76.60
2018-12-13T14:19:43.671Z,76.10
2018-12-13T14:22:09.708Z,75.80
2018-12-13T14:24:35.727Z,75.80
2018-12-13T14:27:01.867Z,75.80
2018-12-13T14:29:27.896Z,75.40
2018-12-13T14:31:54.011Z,76.10
2018-12-13T14:34:20.151Z,76.20
2018-12-13T14:36:46.168Z,76.10
2018-12-13T14:39:12.188Z,76.20
2018-12-13T14:41:38.215Z,76.00
2018-12-13T14:44:04.229Z,76.10
2018-12-13T14:46:30.251Z,76.40
2018-12-13T14:48:56.272Z,76.50
2018-12-13T14:51:22.387Z,76.40
2018-12-13T14:53:48.419Z,76.40
2018-12-13T14:56:14.439Z,76.40
2018-12-13T14:58:40.539Z,76.10
2018-12-13T15:01:06.682Z,76.30
2018-12-13T15:03:32.755Z,76.20
2018-12-13T15:05:58.821Z,75.80
2018-12-13T15:08:24.935Z,76.50
2018-12-13T15:10:50.952Z,76.00
2018-12-13T15:13:16.979Z,75.90
2018-12-13T15:15:42.999Z,75.80
2018-12-13T15:18:09.026Z,75.50
2018-12-13T15:20:35.037Z,75.40
2018-12-13T15:23:01.055Z,75.20
2018-12-13T15:25:27.077Z,75.40
2018-12-13T15:27:53.084Z,75.00
2018-12-13T15:30:19.101Z,75.50
2018-12-13T15:32:45.111Z,75.50
2018-12-13T15:35:11.345Z,75.30
2018-12-13T15:37:37.370Z,75.30
2018-12-13T15:40:03.892Z,75.30
2018-12-13T15:42:30.012Z,75.30
2018-12-13T15:44:56.085Z,75.50
2018-12-13T15:47:22.108Z,75.60
2018-12-13T15:49:48.215Z,75.90
2018-12-13T15:52:14.227Z,75.90
2018-12-13T15:54:40.238Z,75.90
2018-12-13T15:57:06.250Z,76.00
2018-12-13T15:59:32.272Z,76.40
2018-12-13T16:01:58.311Z,76.30
2018-12-13T16:04:24.343Z,76.30
2018-12-13T16:06:50.588Z,76.50
2018-12-13T16:09:16.606Z,76.90
2018-12-13T16:11:42.832Z,76.90
2018-12-13T16:14:08.852Z,77.00
2018-12-13T16:16:34.866Z,76.70
2018-12-13T16:19:00.888Z,76.70
2018-12-13T16:21:27.004Z,76.70
2018-12-13T16:23:53.011Z,76.40
2018-12-13T16:26:19.041Z,76.40
2018-12-13T16:28:45.046Z,76.20
2018-12-13T16:31:11.074Z,76.40
2018-12-13T16:33:44.155Z,76.40
2018-12-13T16:36:10.179Z,76.30
2018-12-13T16:38:36.303Z,76.30
2018-12-13T16:41:02.531Z,76.80
2018-12-13T16:43:28.568Z,77.30
2018-12-13T16:45:54.599Z,77.90
2018-12-13T16:48:20.615Z,79.00
2018-12-13T16:50:46.631Z,79.50
2018-12-13T16:53:12.660Z,80.10
2018-12-13T16:55:38.699Z,80.50
2018-12-13T16:58:04.822Z,81.10
2018-12-13T17:00:30.847Z,81.40
2018-12-13T17:02:56.863Z,81.60
2018-12-13T17:05:22.878Z,81.70
2018-12-13T17:07:49.003Z,81.70
2018-12-13T17:10:16.849Z,81.90
2018-12-13T17:12:43.059Z,82.00
2018-12-13T17:15:09.087Z,82.10
2018-12-13T17:17:35.199Z,82.00
2018-12-13T17:20:01.441Z,82.20
2018-12-13T17:22:27.451Z,82.30
2018-12-13T17:24:53.455Z,82.10
2018-12-13T17:27:19.581Z,82.00
2018-12-13T17:29:45.605Z,81.90
2018-12-13T17:32:11.638Z,81.00
2018-12-13T17:34:37.649Z,81.60
2018-12-13T17:37:03.679Z,80.70
2018-12-13T17:39:29.682Z,80.00
2018-12-13T17:41:55.700Z,79.40
2018-12-13T17:44:21.711Z,79.10
2018-12-13T17:46:47.728Z,78.80
2018-12-13T17:49:13.742Z,79.20
2018-12-13T17:51:39.760Z,79.50
2018-12-13T17:54:05.875Z,80.10
2018-12-13T17:56:32.111Z,81.10
2018-12-13T17:58:58.138Z,80.80
2018-12-13T18:01:24.163Z,80.60
2018-12-13T18:03:50.542Z,80.60
2018-12-13T18:06:16.559Z,80.50
2018-12-13T18:08:42.571Z,80.70
2018-12-13T18:11:08.608Z,79.50
2018-12-13T18:13:34.642Z,79.20
2018-12-13T18:16:00.831Z,78.50
2018-12-13T18:18:26.883Z,78.60
2018-12-13T18:20:52.996Z,78.50
2018-12-13T18:23:19.009Z,78.50
2018-12-13T18:25:45.070Z,78.40
2018-12-13T18:28:11.091Z,78.20
2018-12-13T18:30:37.119Z,78.20
2018-12-13T18:33:03.146Z,78.10
2018-12-13T18:35:29.158Z,78.00
2018-12-13T18:37:55.180Z,78.00
2018-12-13T18:40:21.206Z,78.00
2018-12-13T18:42:47.217Z,78.20
2018-12-13T18:45:13.689Z,78.50
2018-12-13T18:47:39.695Z,78.40
2018-12-13T18:50:05.941Z,78.40
2018-12-13T18:52:31.968Z,78.50
2018-12-13T18:54:57.981Z,78.50
2018-12-13T18:57:23.987Z,78.30
2018-12-13T18:59:50.019Z,78.30
2018-12-13T19:02:16.032Z,78.50
2018-12-13T19:04:42.226Z,78.40
2018-12-13T19:07:08.714Z,78.90
2018-12-13T19:09:34.716Z,79.30
2018-12-13T19:12:00.721Z,79.80
2018-12-13T19:14:26.857Z,80.30
2018-12-13T19:16:52.983Z,80.60
2018-12-13T19:19:19.031Z,81.10
2018-12-13T19:21:45.048Z,81.00
2018-12-13T19:24:11.195Z,81.00
2018-12-13T19:26:37.210Z,81.30
2018-12-13T19:29:03.228Z,81.30
2018-12-13T19:31:29.273Z,81.40
2018-12-13T19:33:55.271Z,81.20
2018-12-13T19:36:21.291Z,80.90
2018-12-13T19:38:47.627Z,80.50
2018-12-13T19:41:13.643Z,79.90
2018-12-13T19:43:39.659Z,79.60
2018-12-13T19:46:05.685Z,79.30
2018-12-13T19:48:31.690Z,79.30
2018-12-13T19:50:58.019Z,79.00
2018-12-13T19:53:24.160Z,79.00
2018-12-13T19:55:50.196Z,79.10
2018-12-13T19:58:16.235Z,79.20
2018-12-13T20:00:42.268Z,79.20
2018-12-13T20:03:08.389Z,79.30
2018-12-13T20:05:34.402Z,79.30
2018-12-13T20:08:00.427Z,79.40
2018-12-13T20:10:26.543Z,79.50
2018-12-13T20:12:52.580Z,79.70
2018-12-13T20:15:23.961Z,80.00
2018-12-13T20:17:46.692Z,80.50
2018-12-13T20:20:12.758Z,80.70
2018-12-13T20:22:38.783Z,80.90
2018-12-13T20:25:04.896Z,81.10
2018-12-13T20:27:31.015Z,81.10
2018-12-13T20:29:57.031Z,81.70
2018-12-13T20:32:23.583Z,81.20
2018-12-13T20:34:50.136Z,81.30
2018-12-13T20:37:16.175Z,81.40
2018-12-13T20:39:42.321Z,81.40
2018-12-13T20:42:08.431Z,81.60
2018-12-13T20:44:34.467Z,82.50
2018-12-13T20:47:00.478Z,81.20
2018-12-13T20:49:26.482Z,80.50
2018-12-13T20:51:52.603Z,79.90
2018-12-13T20:54:18.622Z,79.60
2018-12-13T20:56:44.630Z,79.30
2018-12-13T20:59:10.643Z,78.90
2018-12-13T21:01:36.675Z,79.00
2018-12-13T21:04:02.903Z,78.70
2018-12-13T21:06:28.922Z,79.20
2018-12-13T21:08:55.033Z,78.30
2018-12-13T21:11:21.171Z,78.20
2018-12-13T21:13:47.543Z,78.30
2018-12-13T21:16:13.687Z,78.20
2018-12-13T21:18:39.712Z,78.30
2018-12-13T21:21:05.859Z,78.30
2018-12-13T21:23:31.872Z,78.20
2018-12-13T21:25:57.987Z,78.20
2018-12-13T21:28:24.006Z,78.90
2018-12-13T21:30:50.022Z,77.90
2018-12-13T21:33:22.947Z,77.90
2018-12-13T21:35:49.332Z,78.00
2018-12-13T21:38:15.353Z,78.00
2018-12-13T21:40:41.379Z,78.00
2018-12-13T21:43:07.399Z,78.20
2018-12-13T21:45:33.416Z,78.20
2018-12-13T21:47:59.431Z,78.40
2018-12-13T21:50:25.443Z,79.10
2018-12-13T21:52:51.464Z,78.50
2018-12-13T21:55:17.611Z,78.80
2018-12-13T21:57:43.636Z,78.90
2018-12-13T22:00:10.075Z,79.30
2018-12-13T22:02:36.345Z,80.00
2018-12-13T22:05:03.363Z,80.70
2018-12-13T22:07:29.369Z,81.30
2018-12-13T22:09:55.492Z,81.60
2018-12-13T22:12:22.292Z,82.10
2018-12-13T22:14:48.552Z,82.30
2018-12-13T22:17:14.559Z,82.30
2018-12-13T22:19:41.115Z,82.40
2018-12-13T22:22:07.127Z,82.70
2018-12-13T22:24:33.139Z,82.90
2018-12-13T22:26:59.168Z,82.90
2018-12-13T22:29:25.279Z,82.90
2018-12-13T22:31:51.839Z,82.80
2018-12-13T22:34:17.892Z,83.40
2018-12-13T22:36:44.131Z,82.90
2018-12-13T22:39:10.524Z,83.00
2018-12-13T22:41:36.534Z,83.00
2018-12-13T22:44:02.767Z,83.10
2018-12-13T22:46:28.784Z,83.20
2018-12-13T22:48:54.790Z,83.10
2018-12-13T22:51:20.810Z,82.70
2018-12-13T22:53:46.927Z,82.60
2018-12-13T22:56:13.051Z,82.70
2018-12-13T22:58:39.072Z,82.60
2018-12-13T23:01:05.188Z,82.60
2018-12-13T23:03:31.211Z,82.90
2018-12-13T23:05:57.250Z,82.70
2018-12-13T23:08:23.263Z,82.50
2018-12-13T23:10:49.395Z,82.50
2018-12-13T23:13:15.627Z,82.30
2018-12-13T23:15:41.662Z,81.90
2018-12-13T23:18:07.771Z,81.70
2018-12-13T23:20:33.882Z,81.60
2018-12-13T23:22:59.895Z,81.40
2018-12-13T23:25:26.006Z,81.40
2018-12-13T23:27:52.158Z,81.20
2018-12-13T23:30:18.395Z,81.30
2018-12-13T23:32:44.526Z,81.30
2018-12-13T23:35:10.656Z,81.10
2018-12-13T23:37:36.670Z,81.10
2018-12-13T23:40:03.112Z,81.00
2018-12-13T23:42:29.119Z,81.00
2018-12-13T23:45:02.690Z,81.00
2018-12-13T23:47:28.707Z,81.30
2018-12-13T23:49:54.707Z,81.30
2018-12-13T23:52:20.728Z,81.40
2018-12-13T23:54:46.750Z,81.40
2018-12-13T23:57:12.774Z,81.70
2018-12-13T23:59:38.770Z,81.50
